4°C Temp
3°C Dewpoint
% Humidity
Temperature
23 KM/H
14 MPH
12 KTS
170°
Due South

Wind Speed
Clear
Conditions
Pressure 1002.92 (hPa) - 29.62 (in)
Visibility 6.2 (mi) - 10.0 (km)

Current Conditions
EHAM
Location 6km (3.2mi)
Metar :EHAM 160225Z 17012KT CAVOK 04/03 Q1003 NOSIG
Mon 16th December 04:25 am

Airport
  Metar Aviation API Data Provided by https://www.checkwx.com/ PHP scripts by weather34.com ©2019